Zwettl, Austria

11:38 PM CET on February 27, 2015 (GMT +0100)
Gewerbestraße | Change Station
CLOSE
Current Station
Personal Weather Station
Location: Meinhartschlag,
Elevation: 2024 ft
Nearby Weather Stations

Elev 2024 ft 48.67 °N, 15.07 °E | Updated 2 minutes ago

Mostly Cloudy
Mostly Cloudy
36.0 °F
Feels Like 36 °F
N
-
Wind Variable Wind from North

Today
High -- | Low -- °F
--% Chance of Precip.
Yesterday
High -- | Low -- °F
Precip. -- in
6:45 AM 5:39 PM
Waxing Gibbous, 72% visible
Pressure 30.04 in
Visibility 6.2 miles
Clouds Few 5000 ft
Mostly Cloudy 8000 ft
Windchill 36 °F
Dew Point 30 °F
Humidity 79%
Rainfall -999.00 in
Snow Depth Not available.
UV 0 out of 12
Pollen Not available.
Air Quality Not available.
Flu Activity Not available.
METAR LOWL 272220Z AUTO 27010KT 9999 FEW050 BKN080 04/00 Q1017

More Conditions Fewer Conditions

Pressure 30.04 in
Visibility 6.2 miles
Clouds Few 5000 ft
Mostly Cloudy 8000 ft
Windchill 36 °F
Dew Point 30 °F
Humidity 79%
Rainfall -999.00 in
Snow Depth Not available.
UV 0 out of 12
Pollen Not available.
Air Quality Not available.
Flu Activity Not available.
METAR LOWL 272220Z AUTO 27010KT 9999 FEW050 BKN080 04/00 Q1017

More Conditions Fewer Conditions

10-Day Weather Forecast

Almanac

Astronomy

Feb. 27, 2015 Rise Set
Actual Time 6:45 AM CET 5:39 PM CET
Civil Twilight 6:14 AM CET 6:10 PM CET
Nautical Twilight 5:37 AM CET 6:47 PM CET
Astronomical Twilight 5:01 AM CET 7:23 PM CET
Moon 11:59 AM CET 2:35 AM CET
Length of Visible Light 11h 56m
Length of Day
10h 53m
Tomorrow will be 3m 31s longer.
Waxing Gibbous, 72% of the Moon is Illuminated
Today
Waxing Gibbous
Mar 5
Full
Mar 13
Last Quarter
Mar 20
New
Mar 27
First Quarter

Today's Extremes

Country Highs Country Lows

Community

WunderPhotos

Upload Photos

1,800,852 photos uploaded!

Nearby

Snow Depth

Not available.

Earthquake Activity

City Distance Mag. Time & Date
No recent earthquake activity has been reported nearby.
Minimum magnitude displayed is 2.5.

Coastal Water Temperatures

Place Temperature
No Stations Reporting

Nearby Weather Stations